KJAC/JAC METAR and TAF weather

Enter ICAO airport designator
Station Type Date Time Source
KJAC METAR 2019/05/21 19:56 UTC NOAA

KJAC 211956Z 04009G14KT 10SM BKN070 11/M01 A2957 RMK AO2 SLP002 T01061011


Station Type Date Time Source
KJAC Decoded METAR 2019/05/21 19:56 UTC NOAA

Jackson, Jackson Hole Airport, WY, United States (KJAC) 43-36N 110-44W
May 21, 2019 - 03:56 PM EDT / 2019.05.21 1956 UTC
Wind: from the NE (040 degrees) at 10 MPH (9 KT) gusting to 16 MPH (14 KT):0
Visibility: 10 mile(s):0
Sky conditions: mostly cloudy
Temperature: 51.1 F (10.6 C)
Dew Point: 30.0 F (-1.1 C)
Relative Humidity: 44%
Pressure (altimeter): 29.57 in. Hg (1001 hPa)
ob: KJAC 211956Z 04009G14KT 10SM BKN070 11/M01 A2957 RMK AO2 SLP002 T01061011
cycle: 20

Station Type Date Time Source
KJAC TAF 2019/05/21 18:33 UTC NOAA

TAF KJAC 211731Z 2118/2218 36006KT P6SM VCSH SCT025 BKN060
FM211900 02011KT P6SM -SHRASN SCT014 BKN025
FM220300 02012G20KT P6SM VCSH BKN025
FM221500 04014KT P6SM SCT025 BKN050
AMD LTD TO CLD VIS AND WIND

Example: see airport list